sensor_id;sensor_type;location;lat;lon;timestamp;P1;durP1;ratioP1;P2;durP2;ratioP2
66402;SDS011;53212;52.112;5.144;2023-02-28T00:00:32;3.10;;;2.80;;
66402;SDS011;53212;52.112;5.144;2023-02-28T00:02:58;3.90;;;2.60;;
66402;SDS011;53212;52.112;5.144;2023-02-28T00:05:25;4.30;;;2.70;;
66402;SDS011;53212;52.112;5.144;2023-02-28T00:07:51;7.20;;;2.50;;
66402;SDS011;53212;52.112;5.144;2023-02-28T00:10:19;3.00;;;2.20;;
66402;SDS011;53212;52.112;5.144;2023-02-28T00:12:50;6.60;;;2.90;;
66402;SDS011;53212;52.112;5.144;2023-02-28T00:15:16;4.10;;;2.70;;
66402;SDS011;53212;52.112;5.144;2023-02-28T00:17:42;3.90;;;2.20;;
66402;SDS011;53212;52.112;5.144;2023-02-28T00:20:08;5.10;;;3.10;;
66402;SDS011;53212;52.112;5.144;2023-02-28T00:22:44;4.00;;;2.90;;
66402;SDS011;53212;52.112;5.144;2023-02-28T00:25:14;4.80;;;3.10;;
66402;SDS011;53212;52.112;5.144;2023-02-28T00:27:42;5.40;;;2.70;;
66402;SDS011;53212;52.112;5.144;2023-02-28T00:30:11;3.60;;;2.60;;
66402;SDS011;53212;52.112;5.144;2023-02-28T00:32:39;4.10;;;2.60;;
66402;SDS011;53212;52.112;5.144;2023-02-28T00:35:05;3.80;;;2.10;;
66402;SDS011;53212;52.112;5.144;2023-02-28T00:37:31;4.60;;;2.50;;
66402;SDS011;53212;52.112;5.144;2023-02-28T00:39:57;4.10;;;2.20;;
66402;SDS011;53212;52.112;5.144;2023-02-28T00:42:23;3.80;;;2.20;;
66402;SDS011;53212;52.112;5.144;2023-02-28T00:44:49;2.80;;;2.10;;
66402;SDS011;53212;52.112;5.144;2023-02-28T00:47:15;4.00;;;2.20;;
66402;SDS011;53212;52.112;5.144;2023-02-28T00:49:41;2.90;;;1.90;;
66402;SDS011;53212;52.112;5.144;2023-02-28T00:52:06;3.80;;;2.00;;
66402;SDS011;53212;52.112;5.144;2023-02-28T00:54:32;3.00;;;1.80;;
66402;SDS011;53212;52.112;5.144;2023-02-28T00:56:58;3.60;;;2.20;;
66402;SDS011;53212;52.112;5.144;2023-02-28T00:59:23;3.30;;;2.10;;
66402;SDS011;53212;52.112;5.144;2023-02-28T01:01:49;4.50;;;2.00;;
66402;SDS011;53212;52.112;5.144;2023-02-28T01:04:14;3.00;;;1.80;;
66402;SDS011;53212;52.112;5.144;2023-02-28T01:06:40;5.30;;;2.30;;
66402;SDS011;53212;52.112;5.144;2023-02-28T01:09:06;3.50;;;2.10;;
66402;SDS011;53212;52.112;5.144;2023-02-28T01:11:33;4.90;;;2.20;;
66402;SDS011;53212;52.112;5.144;2023-02-28T01:13:59;5.20;;;2.50;;
66402;SDS011;53212;52.112;5.144;2023-02-28T01:16:25;4.90;;;2.00;;
66402;SDS011;53212;52.112;5.144;2023-02-28T01:18:51;2.60;;;1.70;;
66402;SDS011;53212;52.112;5.144;2023-02-28T01:21:17;3.00;;;2.00;;
66402;SDS011;53212;52.112;5.144;2023-02-28T01:23:44;3.10;;;2.00;;
66402;SDS011;53212;52.112;5.144;2023-02-28T01:26:13;2.50;;;1.90;;
66402;SDS011;53212;52.112;5.144;2023-02-28T01:28:41;3.50;;;2.00;;
66402;SDS011;53212;52.112;5.144;2023-02-28T01:31:07;4.80;;;2.60;;
66402;SDS011;53212;52.112;5.144;2023-02-28T01:33:34;5.10;;;2.40;;
66402;SDS011;53212;52.112;5.144;2023-02-28T01:36:01;2.30;;;2.00;;
66402;SDS011;53212;52.112;5.144;2023-02-28T01:38:28;3.50;;;1.80;;
66402;SDS011;53212;52.112;5.144;2023-02-28T01:40:54;3.00;;;2.10;;
66402;SDS011;53212;52.112;5.144;2023-02-28T01:43:28;3.70;;;2.20;;
66402;SDS011;53212;52.112;5.144;2023-02-28T01:45:56;2.90;;;1.90;;
66402;SDS011;53212;52.112;5.144;2023-02-28T01:48:28;2.90;;;1.80;;
66402;SDS011;53212;52.112;5.144;2023-02-28T01:51:04;2.80;;;2.20;;
66402;SDS011;53212;52.112;5.144;2023-02-28T01:53:41;2.80;;;2.10;;
66402;SDS011;53212;52.112;5.144;2023-02-28T01:56:10;3.80;;;2.50;;
66402;SDS011;53212;52.112;5.144;2023-02-28T01:58:38;2.30;;;1.80;;
66402;SDS011;53212;52.112;5.144;2023-02-28T02:01:03;3.70;;;2.30;;
66402;SDS011;53212;52.112;5.144;2023-02-28T02:03:29;3.50;;;2.30;;
66402;SDS011;53212;52.112;5.144;2023-02-28T02:05:56;3.00;;;2.10;;
66402;SDS011;53212;52.112;5.144;2023-02-28T02:08:26;3.00;;;2.00;;
66402;SDS011;53212;52.112;5.144;2023-02-28T02:10:59;4.90;;;2.10;;
66402;SDS011;53212;52.112;5.144;2023-02-28T02:34:26;3.00;;;2.10;;
66402;SDS011;53212;52.112;5.144;2023-02-28T02:40:25;3.50;;;2.50;;
66402;SDS011;53212;52.112;5.144;2023-02-28T02:43:03;2.60;;;2.40;;
66402;SDS011;53212;52.112;5.144;2023-02-28T02:48:34;2.40;;;2.10;;
66402;SDS011;53212;52.112;5.144;2023-02-28T02:51:03;3.10;;;2.20;;
66402;SDS011;53212;52.112;5.144;2023-02-28T02:53:41;2.70;;;2.30;;
66402;SDS011;53212;52.112;5.144;2023-02-28T02:56:10;4.10;;;2.20;;
66402;SDS011;53212;52.112;5.144;2023-02-28T02:58:38;4.40;;;2.00;;
66402;SDS011;53212;52.112;5.144;2023-02-28T03:01:07;3.70;;;2.10;;
66402;SDS011;53212;52.112;5.144;2023-02-28T03:03:37;3.40;;;2.20;;
66402;SDS011;53212;52.112;5.144;2023-02-28T03:06:03;4.50;;;2.40;;
66402;SDS011;53212;52.112;5.144;2023-02-28T03:08:35;3.60;;;2.40;;
66402;SDS011;53212;52.112;5.144;2023-02-28T03:11:06;3.40;;;2.20;;
66402;SDS011;53212;52.112;5.144;2023-02-28T03:13:51;4.60;;;2.50;;
66402;SDS011;53212;52.112;5.144;2023-02-28T03:25:13;4.60;;;2.20;;
66402;SDS011;53212;52.112;5.144;2023-02-28T03:30:38;3.10;;;2.20;;
66402;SDS011;53212;52.112;5.144;2023-02-28T03:33:38;5.10;;;2.40;;
66402;SDS011;53212;52.112;5.144;2023-02-28T03:36:10;3.30;;;2.20;;
66402;SDS011;53212;52.112;5.144;2023-02-28T03:38:44;3.50;;;2.50;;
66402;SDS011;53212;52.112;5.144;2023-02-28T03:41:40;3.40;;;2.00;;
66402;SDS011;53212;52.112;5.144;2023-02-28T03:44:13;2.70;;;2.20;;
66402;SDS011;53212;52.112;5.144;2023-02-28T03:46:46;3.90;;;2.20;;
66402;SDS011;53212;52.112;5.144;2023-02-28T03:49:19;6.20;;;2.60;;
66402;SDS011;53212;52.112;5.144;2023-02-28T03:52:09;3.60;;;2.30;;
66402;SDS011;53212;52.112;5.144;2023-02-28T03:54:38;3.30;;;2.30;;
66402;SDS011;53212;52.112;5.144;2023-02-28T03:59:59;2.70;;;2.40;;
66402;SDS011;53212;52.112;5.144;2023-02-28T04:02:32;5.60;;;2.80;;
66402;SDS011;53212;52.112;5.144;2023-02-28T04:04:57;4.80;;;2.60;;
66402;SDS011;53212;52.112;5.144;2023-02-28T04:07:29;3.90;;;2.90;;
66402;SDS011;53212;52.112;5.144;2023-02-28T04:09:55;3.80;;;2.50;;
66402;SDS011;53212;52.112;5.144;2023-02-28T04:12:21;4.30;;;2.90;;
66402;SDS011;53212;52.112;5.144;2023-02-28T04:14:48;4.20;;;2.50;;
66402;SDS011;53212;52.112;5.144;2023-02-28T04:17:15;4.60;;;2.90;;
66402;SDS011;53212;52.112;5.144;2023-02-28T04:19:41;7.00;;;3.00;;
66402;SDS011;53212;52.112;5.144;2023-02-28T04:22:08;3.50;;;2.80;;
66402;SDS011;53212;52.112;5.144;2023-02-28T04:24:34;3.70;;;2.80;;
66402;SDS011;53212;52.112;5.144;2023-02-28T04:26:59;5.40;;;3.00;;
66402;SDS011;53212;52.112;5.144;2023-02-28T04:29:30;5.60;;;2.90;;
66402;SDS011;53212;52.112;5.144;2023-02-28T04:31:58;5.20;;;2.80;;
66402;SDS011;53212;52.112;5.144;2023-02-28T04:34:25;5.00;;;3.30;;
66402;SDS011;53212;52.112;5.144;2023-02-28T04:36:53;5.90;;;3.40;;
66402;SDS011;53212;52.112;5.144;2023-02-28T04:39:20;3.90;;;3.20;;
66402;SDS011;53212;52.112;5.144;2023-02-28T04:41:47;5.20;;;3.20;;
66402;SDS011;53212;52.112;5.144;2023-02-28T04:44:12;4.80;;;3.10;;
66402;SDS011;53212;52.112;5.144;2023-02-28T04:46:39;7.00;;;3.40;;
66402;SDS011;53212;52.112;5.144;2023-02-28T04:49:04;4.80;;;3.20;;
66402;SDS011;53212;52.112;5.144;2023-02-28T04:51:30;5.40;;;3.40;;
66402;SDS011;53212;52.112;5.144;2023-02-28T04:53:55;5.90;;;3.30;;
66402;SDS011;53212;52.112;5.144;2023-02-28T04:56:21;6.50;;;3.30;;
66402;SDS011;53212;52.112;5.144;2023-02-28T04:58:48;3.30;;;3.00;;
66402;SDS011;53212;52.112;5.144;2023-02-28T05:03:52;4.30;;;3.10;;
66402;SDS011;53212;52.112;5.144;2023-02-28T05:06:21;3.50;;;2.90;;
66402;SDS011;53212;52.112;5.144;2023-02-28T05:08:49;3.50;;;2.90;;
66402;SDS011;53212;52.112;5.144;2023-02-28T05:11:28;4.10;;;2.70;;
66402;SDS011;53212;52.112;5.144;2023-02-28T05:14:00;4.10;;;3.00;;
66402;SDS011;53212;52.112;5.144;2023-02-28T05:16:29;4.00;;;2.80;;
66402;SDS011;53212;52.112;5.144;2023-02-28T05:18:55;3.40;;;2.70;;
66402;SDS011;53212;52.112;5.144;2023-02-28T05:21:40;5.50;;;3.00;;
66402;SDS011;53212;52.112;5.144;2023-02-28T05:24:13;7.50;;;3.20;;
66402;SDS011;53212;52.112;5.144;2023-02-28T05:26:40;3.30;;;2.80;;
66402;SDS011;53212;52.112;5.144;2023-02-28T05:29:07;6.10;;;3.20;;
66402;SDS011;53212;52.112;5.144;2023-02-28T05:31:34;6.40;;;3.00;;
66402;SDS011;53212;52.112;5.144;2023-02-28T05:34:01;4.10;;;3.00;;
66402;SDS011;53212;52.112;5.144;2023-02-28T05:36:26;4.20;;;3.00;;
66402;SDS011;53212;52.112;5.144;2023-02-28T05:38:52;3.30;;;2.40;;
66402;SDS011;53212;52.112;5.144;2023-02-28T05:41:18;3.20;;;2.40;;
66402;SDS011;53212;52.112;5.144;2023-02-28T05:43:45;6.90;;;3.00;;
66402;SDS011;53212;52.112;5.144;2023-02-28T05:46:11;2.90;;;2.40;;
66402;SDS011;53212;52.112;5.144;2023-02-28T05:48:38;3.80;;;2.70;;
66402;SDS011;53212;52.112;5.144;2023-02-28T05:51:05;3.20;;;2.50;;
66402;SDS011;53212;52.112;5.144;2023-02-28T05:53:31;3.50;;;2.50;;
66402;SDS011;53212;52.112;5.144;2023-02-28T05:55:57;4.40;;;2.70;;
66402;SDS011;53212;52.112;5.144;2023-02-28T05:58:23;3.30;;;2.60;;
66402;SDS011;53212;52.112;5.144;2023-02-28T06:00:50;2.60;;;2.30;;
66402;SDS011;53212;52.112;5.144;2023-02-28T06:03:16;3.80;;;2.60;;
66402;SDS011;53212;52.112;5.144;2023-02-28T06:05:41;2.90;;;2.70;;
66402;SDS011;53212;52.112;5.144;2023-02-28T06:08:07;4.20;;;2.90;;
66402;SDS011;53212;52.112;5.144;2023-02-28T06:10:34;4.60;;;3.10;;
66402;SDS011;53212;52.112;5.144;2023-02-28T06:13:01;3.20;;;2.90;;
66402;SDS011;53212;52.112;5.144;2023-02-28T06:15:30;4.60;;;3.10;;
66402;SDS011;53212;52.112;5.144;2023-02-28T06:17:56;3.20;;;2.90;;
66402;SDS011;53212;52.112;5.144;2023-02-28T06:20:23;4.10;;;2.60;;
66402;SDS011;53212;52.112;5.144;2023-02-28T06:22:49;2.90;;;2.60;;
66402;SDS011;53212;52.112;5.144;2023-02-28T06:25:16;4.40;;;2.90;;
66402;SDS011;53212;52.112;5.144;2023-02-28T06:27:42;4.50;;;2.90;;
66402;SDS011;53212;52.112;5.144;2023-02-28T06:30:09;3.00;;;2.70;;
66402;SDS011;53212;52.112;5.144;2023-02-28T06:32:36;2.90;;;2.70;;
66402;SDS011;53212;52.112;5.144;2023-02-28T06:35:02;3.50;;;3.20;;
66402;SDS011;53212;52.112;5.144;2023-02-28T06:37:28;2.80;;;2.60;;
66402;SDS011;53212;52.112;5.144;2023-02-28T06:39:55;3.50;;;2.90;;
66402;SDS011;53212;52.112;5.144;2023-02-28T06:42:22;4.50;;;3.30;;
66402;SDS011;53212;52.112;5.144;2023-02-28T06:44:51;3.80;;;2.90;;
66402;SDS011;53212;52.112;5.144;2023-02-28T06:47:16;3.40;;;3.00;;
66402;SDS011;53212;52.112;5.144;2023-02-28T06:49:42;3.40;;;3.10;;
66402;SDS011;53212;52.112;5.144;2023-02-28T06:52:07;5.10;;;3.30;;
66402;SDS011;53212;52.112;5.144;2023-02-28T06:54:36;3.50;;;3.00;;
66402;SDS011;53212;52.112;5.144;2023-02-28T06:57:02;4.50;;;3.20;;
66402;SDS011;53212;52.112;5.144;2023-02-28T06:59:28;3.90;;;3.40;;
66402;SDS011;53212;52.112;5.144;2023-02-28T07:01:53;3.60;;;2.70;;
66402;SDS011;53212;52.112;5.144;2023-02-28T07:04:20;4.90;;;3.10;;
66402;SDS011;53212;52.112;5.144;2023-02-28T07:06:46;4.70;;;3.40;;
66402;SDS011;53212;52.112;5.144;2023-02-28T07:09:11;3.50;;;3.10;;
66402;SDS011;53212;52.112;5.144;2023-02-28T07:11:37;3.80;;;3.30;;
66402;SDS011;53212;52.112;5.144;2023-02-28T07:14:02;3.10;;;2.90;;
66402;SDS011;53212;52.112;5.144;2023-02-28T07:16:28;4.80;;;3.20;;
66402;SDS011;53212;52.112;5.144;2023-02-28T07:18:53;5.70;;;3.50;;
66402;SDS011;53212;52.112;5.144;2023-02-28T07:21:20;4.20;;;3.40;;
66402;SDS011;53212;52.112;5.144;2023-02-28T07:23:46;4.10;;;3.40;;
66402;SDS011;53212;52.112;5.144;2023-02-28T07:26:16;4.00;;;3.00;;
66402;SDS011;53212;52.112;5.144;2023-02-28T07:28:44;3.90;;;3.50;;
66402;SDS011;53212;52.112;5.144;2023-02-28T07:31:11;4.70;;;3.60;;
66402;SDS011;53212;52.112;5.144;2023-02-28T07:33:39;6.00;;;3.60;;
66402;SDS011;53212;52.112;5.144;2023-02-28T07:36:07;4.40;;;3.50;;
66402;SDS011;53212;52.112;5.144;2023-02-28T07:38:35;5.70;;;4.40;;
66402;SDS011;53212;52.112;5.144;2023-02-28T07:41:01;6.80;;;5.20;;
66402;SDS011;53212;52.112;5.144;2023-02-28T07:43:31;5.00;;;4.10;;
66402;SDS011;53212;52.112;5.144;2023-02-28T07:46:08;4.40;;;3.60;;
66402;SDS011;53212;52.112;5.144;2023-02-28T07:48:36;5.10;;;3.80;;
66402;SDS011;53212;52.112;5.144;2023-02-28T07:51:01;4.80;;;4.00;;
66402;SDS011;53212;52.112;5.144;2023-02-28T07:53:28;5.50;;;3.80;;
66402;SDS011;53212;52.112;5.144;2023-02-28T07:55:58;6.60;;;3.60;;
66402;SDS011;53212;52.112;5.144;2023-02-28T07:58:26;4.20;;;3.80;;
66402;SDS011;53212;52.112;5.144;2023-02-28T08:00:52;6.70;;;3.50;;
66402;SDS011;53212;52.112;5.144;2023-02-28T08:03:18;3.90;;;3.50;;
66402;SDS011;53212;52.112;5.144;2023-02-28T08:05:46;6.30;;;3.90;;
66402;SDS011;53212;52.112;5.144;2023-02-28T08:08:11;5.50;;;3.80;;
66402;SDS011;53212;52.112;5.144;2023-02-28T08:10:37;3.30;;;3.00;;
66402;SDS011;53212;52.112;5.144;2023-02-28T08:13:02;3.90;;;3.50;;
66402;SDS011;53212;52.112;5.144;2023-02-28T08:15:28;5.30;;;4.30;;
66402;SDS011;53212;52.112;5.144;2023-02-28T08:17:54;5.00;;;4.00;;
66402;SDS011;53212;52.112;5.144;2023-02-28T08:20:21;4.20;;;3.80;;
66402;SDS011;53212;52.112;5.144;2023-02-28T08:22:47;6.20;;;4.40;;
66402;SDS011;53212;52.112;5.144;2023-02-28T08:25:13;3.90;;;3.50;;
66402;SDS011;53212;52.112;5.144;2023-02-28T08:27:39;5.70;;;4.00;;
66402;SDS011;53212;52.112;5.144;2023-02-28T08:30:05;4.70;;;3.70;;
66402;SDS011;53212;52.112;5.144;2023-02-28T08:32:32;4.00;;;3.60;;
66402;SDS011;53212;52.112;5.144;2023-02-28T08:34:59;4.70;;;3.80;;
66402;SDS011;53212;52.112;5.144;2023-02-28T08:37:24;4.60;;;4.00;;
66402;SDS011;53212;52.112;5.144;2023-02-28T08:39:50;4.50;;;3.10;;
66402;SDS011;53212;52.112;5.144;2023-02-28T08:42:16;5.90;;;3.40;;
66402;SDS011;53212;52.112;5.144;2023-02-28T08:44:41;4.50;;;3.20;;
66402;SDS011;53212;52.112;5.144;2023-02-28T08:47:07;3.80;;;3.30;;
66402;SDS011;53212;52.112;5.144;2023-02-28T08:49:33;3.80;;;3.50;;
66402;SDS011;53212;52.112;5.144;2023-02-28T08:51:58;3.90;;;3.50;;
66402;SDS011;53212;52.112;5.144;2023-02-28T08:54:24;4.20;;;3.80;;
66402;SDS011;53212;52.112;5.144;2023-02-28T08:56:49;4.00;;;3.30;;
66402;SDS011;53212;52.112;5.144;2023-02-28T08:59:15;3.90;;;3.20;;
66402;SDS011;53212;52.112;5.144;2023-02-28T09:01:41;3.60;;;3.00;;
66402;SDS011;53212;52.112;5.144;2023-02-28T09:04:07;3.30;;;2.90;;
66402;SDS011;53212;52.112;5.144;2023-02-28T09:06:34;4.40;;;2.80;;
66402;SDS011;53212;52.112;5.144;2023-02-28T09:09:00;2.90;;;2.60;;
66402;SDS011;53212;52.112;5.144;2023-02-28T09:11:27;4.20;;;2.70;;
66402;SDS011;53212;52.112;5.144;2023-02-28T09:13:53;3.60;;;2.90;;
66402;SDS011;53212;52.112;5.144;2023-02-28T09:16:20;2.50;;;2.30;;
66402;SDS011;53212;52.112;5.144;2023-02-28T09:18:46;3.30;;;2.40;;
66402;SDS011;53212;52.112;5.144;2023-02-28T09:21:14;2.80;;;2.60;;
66402;SDS011;53212;52.112;5.144;2023-02-28T09:23:45;3.40;;;2.50;;
66402;SDS011;53212;52.112;5.144;2023-02-28T09:26:17;3.90;;;2.40;;
66402;SDS011;53212;52.112;5.144;2023-02-28T09:28:52;3.50;;;2.70;;
66402;SDS011;53212;52.112;5.144;2023-02-28T09:31:24;3.90;;;2.30;;
66402;SDS011;53212;52.112;5.144;2023-02-28T09:33:52;3.40;;;2.30;;
66402;SDS011;53212;52.112;5.144;2023-02-28T09:36:20;2.30;;;2.10;;
66402;SDS011;53212;52.112;5.144;2023-02-28T09:38:47;2.30;;;2.10;;
66402;SDS011;53212;52.112;5.144;2023-02-28T09:41:25;3.90;;;2.40;;
66402;SDS011;53212;52.112;5.144;2023-02-28T09:43:55;3.60;;;2.20;;
66402;SDS011;53212;52.112;5.144;2023-02-28T09:49:33;2.10;;;1.90;;
66402;SDS011;53212;52.112;5.144;2023-02-28T09:52:01;2.90;;;2.30;;
66402;SDS011;53212;52.112;5.144;2023-02-28T09:54:31;2.20;;;2.10;;
66402;SDS011;53212;52.112;5.144;2023-02-28T09:57:07;2.70;;;2.10;;
66402;SDS011;53212;52.112;5.144;2023-02-28T09:59:57;2.80;;;2.40;;
66402;SDS011;53212;52.112;5.144;2023-02-28T10:08:32;4.90;;;2.20;;
66402;SDS011;53212;52.112;5.144;2023-02-28T10:11:07;2.50;;;2.10;;
66402;SDS011;53212;52.112;5.144;2023-02-28T10:13:48;3.20;;;2.00;;
66402;SDS011;53212;52.112;5.144;2023-02-28T10:17:05;3.20;;;1.90;;
66402;SDS011;53212;52.112;5.144;2023-02-28T10:19:35;2.40;;;2.10;;
66402;SDS011;53212;52.112;5.144;2023-02-28T10:22:15;3.00;;;2.00;;
66402;SDS011;53212;52.112;5.144;2023-02-28T10:24:45;2.60;;;1.90;;
66402;SDS011;53212;52.112;5.144;2023-02-28T10:27:26;2.30;;;2.10;;
66402;SDS011;53212;52.112;5.144;2023-02-28T10:29:57;3.90;;;2.00;;
66402;SDS011;53212;52.112;5.144;2023-02-28T10:37:39;1.70;;;1.60;;
66402;SDS011;53212;52.112;5.144;2023-02-28T10:40:32;1.50;;;1.40;;
66402;SDS011;53212;52.112;5.144;2023-02-28T10:42:59;2.40;;;1.50;;
66402;SDS011;53212;52.112;5.144;2023-02-28T10:45:37;1.80;;;1.60;;
66402;SDS011;53212;52.112;5.144;2023-02-28T10:48:04;1.70;;;1.60;;
66402;SDS011;53212;52.112;5.144;2023-02-28T10:56:01;1.60;;;1.50;;
66402;SDS011;53212;52.112;5.144;2023-02-28T10:59:01;1.70;;;1.60;;
66402;SDS011;53212;52.112;5.144;2023-02-28T11:01:44;1.30;;;1.20;;
66402;SDS011;53212;52.112;5.144;2023-02-28T11:04:33;2.50;;;1.90;;
66402;SDS011;53212;52.112;5.144;2023-02-28T11:07:21;1.60;;;1.50;;
66402;SDS011;53212;52.112;5.144;2023-02-28T11:09:50;1.40;;;1.30;;
66402;SDS011;53212;52.112;5.144;2023-02-28T11:12:27;1.50;;;1.40;;
66402;SDS011;53212;52.112;5.144;2023-02-28T11:15:26;1.80;;;1.60;;
66402;SDS011;53212;52.112;5.144;2023-02-28T11:20:31;1.70;;;1.40;;
66402;SDS011;53212;52.112;5.144;2023-02-28T11:22:59;1.60;;;1.50;;
66402;SDS011;53212;52.112;5.144;2023-02-28T11:25:29;2.00;;;1.40;;
66402;SDS011;53212;52.112;5.144;2023-02-28T11:27:59;1.70;;;1.60;;
66402;SDS011;53212;52.112;5.144;2023-02-28T11:30:32;1.30;;;1.20;;
66402;SDS011;53212;52.112;5.144;2023-02-28T11:32:59;1.70;;;1.60;;
66402;SDS011;53212;52.112;5.144;2023-02-28T11:35:33;1.60;;;1.50;;
66402;SDS011;53212;52.112;5.144;2023-02-28T11:38:07;1.70;;;1.30;;
66402;SDS011;53212;52.112;5.144;2023-02-28T11:41:05;1.80;;;1.70;;
66402;SDS011;53212;52.112;5.144;2023-02-28T11:46:45;1.60;;;1.50;;
66402;SDS011;53212;52.112;5.144;2023-02-28T11:49:25;1.50;;;1.30;;
66402;SDS011;53212;52.112;5.144;2023-02-28T11:57:55;2.10;;;1.50;;
66402;SDS011;53212;52.112;5.144;2023-02-28T12:03:44;1.40;;;1.30;;
66402;SDS011;53212;52.112;5.144;2023-02-28T12:09:49;1.80;;;1.50;;
66402;SDS011;53212;52.112;5.144;2023-02-28T12:26:32;2.70;;;1.50;;
66402;SDS011;53212;52.112;5.144;2023-02-28T12:29:23;1.60;;;1.50;;
66402;SDS011;53212;52.112;5.144;2023-02-28T12:32:20;1.60;;;1.50;;
66402;SDS011;53212;52.112;5.144;2023-02-28T12:35:01;1.80;;;1.70;;
66402;SDS011;53212;52.112;5.144;2023-02-28T12:37:54;2.00;;;1.30;;
66402;SDS011;53212;52.112;5.144;2023-02-28T12:40:32;1.80;;;1.70;;
66402;SDS011;53212;52.112;5.144;2023-02-28T12:43:08;1.90;;;1.60;;
66402;SDS011;53212;52.112;5.144;2023-02-28T12:45:42;1.80;;;1.50;;
66402;SDS011;53212;52.112;5.144;2023-02-28T12:48:41;2.00;;;1.40;;
66402;SDS011;53212;52.112;5.144;2023-02-28T12:51:09;1.80;;;1.40;;
66402;SDS011;53212;52.112;5.144;2023-02-28T12:57:09;1.30;;;1.10;;
66402;SDS011;53212;52.112;5.144;2023-02-28T12:59:54;1.60;;;1.40;;
66402;SDS011;53212;52.112;5.144;2023-02-28T13:11:48;1.90;;;1.60;;
66402;SDS011;53212;52.112;5.144;2023-02-28T13:19:44;3.00;;;1.60;;
66402;SDS011;53212;52.112;5.144;2023-02-28T13:22:41;1.40;;;1.30;;
66402;SDS011;53212;52.112;5.144;2023-02-28T13:28:00;1.40;;;1.30;;
66402;SDS011;53212;52.112;5.144;2023-02-28T13:33:25;1.40;;;1.30;;
66402;SDS011;53212;52.112;5.144;2023-02-28T13:38:58;1.70;;;1.60;;
66402;SDS011;53212;52.112;5.144;2023-02-28T13:44:10;1.30;;;1.20;;
66402;SDS011;53212;52.112;5.144;2023-02-28T14:00:08;1.80;;;1.60;;
66402;SDS011;53212;52.112;5.144;2023-02-28T14:03:23;1.60;;;1.50;;
66402;SDS011;53212;52.112;5.144;2023-02-28T14:06:33;1.80;;;1.70;;
66402;SDS011;53212;52.112;5.144;2023-02-28T14:11:38;2.10;;;1.60;;
66402;SDS011;53212;52.112;5.144;2023-02-28T14:14:06;1.60;;;1.50;;
66402;SDS011;53212;52.112;5.144;2023-02-28T14:16:44;2.40;;;1.80;;
66402;SDS011;53212;52.112;5.144;2023-02-28T14:19:24;2.20;;;1.90;;
66402;SDS011;53212;52.112;5.144;2023-02-28T14:22:04;1.80;;;1.70;;
66402;SDS011;53212;52.112;5.144;2023-02-28T14:30:24;1.70;;;1.60;;
66402;SDS011;53212;52.112;5.144;2023-02-28T14:39:03;1.80;;;1.60;;
66402;SDS011;53212;52.112;5.144;2023-02-28T14:41:36;1.60;;;1.50;;
66402;SDS011;53212;52.112;5.144;2023-02-28T14:44:18;3.50;;;1.60;;
66402;SDS011;53212;52.112;5.144;2023-02-28T14:46:48;2.20;;;1.60;;
66402;SDS011;53212;52.112;5.144;2023-02-28T14:49:41;2.50;;;1.60;;
66402;SDS011;53212;52.112;5.144;2023-02-28T14:52:15;1.70;;;1.60;;
66402;SDS011;53212;52.112;5.144;2023-02-28T14:55:12;1.90;;;1.70;;
66402;SDS011;53212;52.112;5.144;2023-02-28T14:57:43;1.70;;;1.60;;
66402;SDS011;53212;52.112;5.144;2023-02-28T15:00:28;2.00;;;1.80;;
66402;SDS011;53212;52.112;5.144;2023-02-28T15:02:56;2.60;;;1.60;;
66402;SDS011;53212;52.112;5.144;2023-02-28T15:05:31;2.00;;;1.70;;
66402;SDS011;53212;52.112;5.144;2023-02-28T15:13:52;1.80;;;1.70;;
66402;SDS011;53212;52.112;5.144;2023-02-28T15:16:25;2.70;;;1.80;;
66402;SDS011;53212;52.112;5.144;2023-02-28T15:18:59;1.80;;;1.60;;
66402;SDS011;53212;52.112;5.144;2023-02-28T15:21:30;2.10;;;1.40;;
66402;SDS011;53212;52.112;5.144;2023-02-28T15:26:57;1.80;;;1.70;;
66402;SDS011;53212;52.112;5.144;2023-02-28T15:29:26;1.80;;;1.60;;
66402;SDS011;53212;52.112;5.144;2023-02-28T15:32:04;1.90;;;1.80;;
66402;SDS011;53212;52.112;5.144;2023-02-28T15:37:01;1.60;;;1.50;;
66402;SDS011;53212;52.112;5.144;2023-02-28T15:39:28;2.20;;;1.60;;
66402;SDS011;53212;52.112;5.144;2023-02-28T15:42:18;2.30;;;1.60;;
66402;SDS011;53212;52.112;5.144;2023-02-28T15:44:45;2.40;;;1.80;;
66402;SDS011;53212;52.112;5.144;2023-02-28T15:47:27;2.60;;;1.90;;
66402;SDS011;53212;52.112;5.144;2023-02-28T15:49:55;3.70;;;1.90;;
66402;SDS011;53212;52.112;5.144;2023-02-28T15:52:37;1.60;;;1.50;;
66402;SDS011;53212;52.112;5.144;2023-02-28T15:55:21;2.10;;;1.80;;
66402;SDS011;53212;52.112;5.144;2023-02-28T15:57:56;1.80;;;1.70;;
66402;SDS011;53212;52.112;5.144;2023-02-28T16:00:26;1.70;;;1.40;;
66402;SDS011;53212;52.112;5.144;2023-02-28T16:02:53;1.90;;;1.70;;
66402;SDS011;53212;52.112;5.144;2023-02-28T16:05:27;3.80;;;1.90;;
66402;SDS011;53212;52.112;5.144;2023-02-28T16:07:58;2.40;;;1.80;;
66402;SDS011;53212;52.112;5.144;2023-02-28T16:10:26;3.30;;;1.70;;
66402;SDS011;53212;52.112;5.144;2023-02-28T16:12:55;1.60;;;1.50;;
66402;SDS011;53212;52.112;5.144;2023-02-28T16:15:24;1.90;;;1.80;;
66402;SDS011;53212;52.112;5.144;2023-02-28T16:17:52;2.10;;;1.80;;
66402;SDS011;53212;52.112;5.144;2023-02-28T16:20:25;2.00;;;1.90;;
66402;SDS011;53212;52.112;5.144;2023-02-28T16:22:55;2.20;;;1.80;;
66402;SDS011;53212;52.112;5.144;2023-02-28T16:25:29;2.40;;;2.20;;
66402;SDS011;53212;52.112;5.144;2023-02-28T16:27:59;2.00;;;1.60;;
66402;SDS011;53212;52.112;5.144;2023-02-28T16:30:27;1.80;;;1.70;;
66402;SDS011;53212;52.112;5.144;2023-02-28T16:32:56;2.50;;;2.30;;
66402;SDS011;53212;52.112;5.144;2023-02-28T16:35:22;2.00;;;1.90;;
66402;SDS011;53212;52.112;5.144;2023-02-28T16:37:50;1.80;;;1.70;;
66402;SDS011;53212;52.112;5.144;2023-02-28T16:40:22;2.80;;;2.10;;
66402;SDS011;53212;52.112;5.144;2023-02-28T16:42:51;2.40;;;2.10;;
66402;SDS011;53212;52.112;5.144;2023-02-28T16:45:25;2.40;;;1.90;;
66402;SDS011;53212;52.112;5.144;2023-02-28T16:47:52;3.10;;;2.10;;
66402;SDS011;53212;52.112;5.144;2023-02-28T16:50:24;2.60;;;2.40;;
66402;SDS011;53212;52.112;5.144;2023-02-28T16:52:54;2.70;;;2.50;;
66402;SDS011;53212;52.112;5.144;2023-02-28T16:55:20;3.80;;;2.30;;
66402;SDS011;53212;52.112;5.144;2023-02-28T16:57:53;2.30;;;2.10;;
66402;SDS011;53212;52.112;5.144;2023-02-28T17:00:21;2.10;;;1.90;;
66402;SDS011;53212;52.112;5.144;2023-02-28T17:02:47;2.30;;;1.90;;
66402;SDS011;53212;52.112;5.144;2023-02-28T17:05:13;1.90;;;1.80;;
66402;SDS011;53212;52.112;5.144;2023-02-28T17:07:40;2.60;;;1.90;;
66402;SDS011;53212;52.112;5.144;2023-02-28T17:10:13;3.90;;;2.30;;
66402;SDS011;53212;52.112;5.144;2023-02-28T17:12:39;2.10;;;2.00;;
66402;SDS011;53212;52.112;5.144;2023-02-28T17:15:05;2.30;;;2.10;;
66402;SDS011;53212;52.112;5.144;2023-02-28T17:17:31;3.50;;;2.00;;
66402;SDS011;53212;52.112;5.144;2023-02-28T17:19:57;2.80;;;2.60;;
66402;SDS011;53212;52.112;5.144;2023-02-28T17:22:23;2.60;;;2.40;;
66402;SDS011;53212;52.112;5.144;2023-02-28T17:24:49;2.40;;;2.20;;
66402;SDS011;53212;52.112;5.144;2023-02-28T17:27:14;2.40;;;2.00;;
66402;SDS011;53212;52.112;5.144;2023-02-28T17:29:40;2.50;;;2.30;;
66402;SDS011;53212;52.112;5.144;2023-02-28T17:32:06;2.80;;;2.30;;
66402;SDS011;53212;52.112;5.144;2023-02-28T17:34:32;2.40;;;2.20;;
66402;SDS011;53212;52.112;5.144;2023-02-28T17:36:57;2.40;;;2.20;;
66402;SDS011;53212;52.112;5.144;2023-02-28T17:39:22;2.70;;;2.40;;
66402;SDS011;53212;52.112;5.144;2023-02-28T17:41:51;3.50;;;2.30;;
66402;SDS011;53212;52.112;5.144;2023-02-28T17:44:18;3.00;;;2.30;;
66402;SDS011;53212;52.112;5.144;2023-02-28T17:46:45;3.10;;;2.60;;
66402;SDS011;53212;52.112;5.144;2023-02-28T17:49:11;3.00;;;2.80;;
66402;SDS011;53212;52.112;5.144;2023-02-28T17:51:36;4.10;;;2.70;;
66402;SDS011;53212;52.112;5.144;2023-02-28T17:54:02;2.90;;;2.60;;